Time;durP1;ratioP1;P1;durP2;ratioP2;P2;SDS_P1;SDS_P2;PMS_P1;PMS_P2;Temp;Humidity;BMP_temperature;BMP_pressure;BME280_temperature;BME280_humidity;BME280_pressure;Samples;Min_cycle;Max_cycle;Signal;HPM_P1;HPM_P2
2024/04/12 00:01:47;;;;;;;2.23;2.03;;;16.60;99.10;;;;;;5369228;26;20539;-29
2024/04/12 00:04:18;;;;;;;3.57;2.70;;;16.60;99.10;;;;;;5360482;26;20472;-30
2024/04/12 00:06:46;;;;;;;3.93;2.17;;;16.60;99.10;;;;;;5326699;26;21206;-31
2024/04/12 00:09:18;;;;;;;3.10;2.37;;;16.60;99.20;;;;;;5326787;26;20515;-31
2024/04/12 00:11:49;;;;;;;5.63;2.50;;;16.60;99.20;;;;;;5358829;26;20472;-31
2024/04/12 00:14:16;;;;;;;6.27;2.77;;;16.60;99.20;;;;;;5357070;26;20473;-31
2024/04/12 00:16:50;;;;;;;4.93;2.40;;;16.60;99.30;;;;;;5355303;26;20905;-30
2024/04/12 00:19:21;;;;;;;4.43;2.43;;;16.60;99.30;;;;;;5356383;26;20822;-31
2024/04/12 00:21:56;;;;;;;5.57;2.40;;;16.60;99.30;;;;;;5361781;26;20484;-31
2024/04/12 00:24:25;;;;;;;3.37;2.30;;;16.60;99.70;;;;;;5360561;26;20944;-31
2024/04/12 00:26:53;;;;;;;4.90;2.13;;;16.60;99.40;;;;;;5359539;26;20476;-30
2024/04/12 00:29:30;;;;;;;4.80;2.43;;;16.60;99.40;;;;;;5358619;26;20535;-30
2024/04/12 00:32:03;;;;;;;3.77;2.57;;;16.60;99.50;;;;;;5359785;26;20468;-29
2024/04/12 00:34:40;;;;;;;4.10;2.80;;;16.60;99.60;;;;;;5357299;26;20543;-30
2024/04/12 00:37:15;;;;;;;2.73;2.33;;;16.60;99.90;;;;;;5354539;26;20685;-30
2024/04/12 00:39:48;;;;;;;3.80;2.57;;;16.60;99.60;;;;;;5360978;26;20602;-30
2024/04/12 00:42:31;;;;;;;2.90;2.70;;;16.60;99.70;;;;;;5361552;26;20465;-30
2024/04/12 00:45:11;;;;;;;4.00;2.40;;;16.60;99.80;;;;;;5359220;26;20521;-31
2024/04/12 00:47:37;;;;;;;3.07;2.63;;;16.60;99.80;;;;;;5355941;26;20536;-30
2024/04/12 00:50:07;;;;;;;3.77;2.43;;;16.60;99.80;;;;;;5360154;26;20513;-31
2024/04/12 00:52:35;;;;;;;3.27;2.37;;;16.60;99.80;;;;;;5361919;26;20480;-30
2024/04/12 00:55:03;;;;;;;2.73;2.30;;;16.50;99.90;;;;;;5361371;26;21046;-30
2024/04/12 00:57:41;;;;;;;2.43;2.23;;;16.50;99.90;;;;;;5322242;26;20464;-30
2024/04/12 01:00:12;;;;;;;3.20;2.40;;;16.60;99.90;;;;;;5354051;26;20516;-31
2024/04/12 01:02:41;;;;;;;5.83;3.10;;;16.60;99.90;;;;;;5356695;26;20461;-30
2024/04/12 01:05:11;;;;;;;3.00;2.23;;;16.60;99.90;;;;;;5360575;26;20955;-30
2024/04/12 01:07:38;;;;;;;4.73;2.83;;;16.50;99.90;;;;;;5357539;26;20468;-30
2024/04/12 01:10:11;;;;;;;5.33;2.57;;;16.60;99.90;;;;;;5358581;26;20452;-30
2024/04/12 01:12:38;;;;;;;3.50;2.50;;;16.50;99.80;;;;;;5357299;26;20473;-31
2024/04/12 01:15:07;;;;;;;4.13;2.33;;;16.50;99.80;;;;;;5358217;26;20833;-30
2024/04/12 01:17:37;;;;;;;4.80;2.47;;;16.50;99.80;;;;;;5359205;26;20480;-31
2024/04/12 01:20:05;;;;;;;3.07;2.17;;;16.50;99.80;;;;;;5359400;26;20464;-30
2024/04/12 01:22:31;;;;;;;4.00;2.50;;;16.50;99.70;;;;;;5355311;26;20469;-30
2024/04/12 01:24:57;;;;;;;3.33;2.47;;;16.50;99.70;;;;;;5358693;26;20476;-31
2024/04/12 01:27:24;;;;;;;4.40;1.93;;;16.50;99.70;;;;;;5360770;26;20480;-31
2024/04/12 01:29:56;;;;;;;3.13;2.47;;;16.60;99.80;;;;;;5360566;26;20472;-30
2024/04/12 01:32:24;;;;;;;2.90;2.53;;;16.50;99.70;;;;;;5358225;26;20520;-30
2024/04/12 01:34:50;;;;;;;4.20;2.40;;;16.50;99.70;;;;;;5356291;26;20469;-30
2024/04/12 01:37:20;;;;;;;3.10;2.60;;;16.50;99.70;;;;;;5357377;26;21393;-31
2024/04/12 01:39:48;;;;;;;2.70;2.50;;;16.50;99.70;;;;;;5360659;26;20511;-31
2024/04/12 01:42:16;;;;;;;3.80;2.60;;;16.50;99.70;;;;;;5359772;26;20473;-31
2024/04/12 01:45:13;;;;;;;4.10;2.20;;;16.50;99.70;;;;;;5360420;26;21082;-30
2024/04/12 01:47:34;;;;;;;4.60;2.70;;;16.50;99.70;;;;;;5360666;26;21092;-30
2024/04/12 01:50:05;;;;;;;2.80;2.53;;;16.50;99.70;;;;;;5358977;26;20525;-30
2024/04/12 01:52:50;;;;;;;3.40;2.30;;;16.50;99.80;;;;;;5356047;26;21122;-30
2024/04/12 01:55:18;;;;;;;3.93;2.57;;;16.50;99.80;;;;;;5357729;26;20503;-30
2024/04/12 01:57:51;;;;;;;6.40;3.00;;;16.50;99.70;;;;;;5359466;26;20472;-30
2024/04/12 02:00:21;;;;;;;2.70;2.13;;;16.50;99.70;;;;;;5377571;21;20621;-70
2024/04/12 02:02:51;;;;;;;3.80;2.30;;;16.50;99.80;;;;;;5314334;26;20471;-71
2024/04/12 02:05:32;;;;;;;2.67;2.40;;;16.50;99.80;;;;;;5345025;26;20454;-71
2024/04/12 02:08:16;;;;;;;4.40;1.90;;;16.50;99.80;;;;;;5300639;26;20462;-71
2024/04/12 02:10:44;;;;;;;2.70;2.37;;;16.50;99.80;;;;;;5313447;26;20460;-70
2024/04/12 02:13:17;;;;;;;6.60;2.73;;;16.50;99.80;;;;;;5301952;26;20524;-71
2024/04/12 02:15:46;;;;;;;3.30;2.53;;;16.50;99.80;;;;;;5306540;26;20550;-70
2024/04/12 02:18:13;;;;;;;3.73;2.50;;;16.50;99.90;;;;;;5308321;26;20463;-71
2024/04/12 02:20:44;;;;;;;3.03;2.50;;;16.50;99.90;;;;;;5315567;26;20821;-70
2024/04/12 02:23:13;;;;;;;4.63;2.33;;;16.50;99.90;;;;;;5314010;26;20561;-71
2024/04/12 02:25:43;;;;;;;4.00;2.90;;;16.50;99.90;;;;;;5307389;26;21053;-71
2024/04/12 02:28:11;;;;;;;5.00;2.90;;;16.50;99.90;;;;;;5307466;26;21462;-71
2024/04/12 02:30:45;;;;;;;3.67;2.63;;;16.50;99.90;;;;;;5317611;26;21523;-71
2024/04/12 02:33:18;;;;;;;6.93;2.43;;;16.50;99.90;;;;;;5282723;26;21454;-71
2024/04/12 02:35:46;;;;;;;3.50;2.80;;;16.50;99.90;;;;;;5288265;26;20478;-71
2024/04/12 02:38:20;;;;;;;3.20;2.90;;;16.50;99.90;;;;;;5304992;26;20471;-71
2024/04/12 02:40:50;;;;;;;4.17;3.07;;;16.50;99.90;;;;;;5305086;26;20469;-71
2024/04/12 02:43:17;;;;;;;4.00;2.40;;;16.50;99.90;;;;;;5284286;26;20463;-71
2024/04/12 02:45:53;;;;;;;3.83;3.13;;;16.50;99.90;;;;;;5319737;26;20586;-72
2024/04/12 02:48:20;;;;;;;3.23;2.93;;;16.50;99.90;;;;;;5312538;26;20458;-71
2024/04/12 02:50:54;;;;;;;3.60;3.00;;;16.50;99.90;;;;;;5309819;26;20454;-71
2024/04/12 02:53:24;;;;;;;3.63;3.10;;;16.50;99.90;;;;;;5320526;26;20458;-70
2024/04/12 02:56:01;;;;;;;6.60;2.87;;;16.50;99.90;;;;;;5319881;26;20493;-71
2024/04/12 02:58:38;;;;;;;5.17;2.67;;;16.50;99.90;;;;;;5316231;26;20511;-71
2024/04/12 03:01:12;;;;;;;4.27;3.33;;;16.50;99.90;;;;;;5310297;26;21053;-71
2024/04/12 03:03:41;;;;;;;7.90;3.37;;;16.50;99.90;;;;;;5316344;26;20932;-71
2024/04/12 03:06:10;;;;;;;4.60;2.87;;;16.50;99.90;;;;;;5317807;26;20579;-71
2024/04/12 03:08:43;;;;;;;4.53;3.57;;;16.50;99.90;;;;;;5318306;26;20503;-71
2024/04/12 03:11:22;;;;;;;4.30;3.00;;;16.50;99.90;;;;;;5312391;26;20573;-71
2024/04/12 03:13:52;;;;;;;3.53;3.20;;;16.50;99.90;;;;;;5310698;26;20481;-71
2024/04/12 03:16:20;;;;;;;3.43;2.70;;;16.50;99.90;;;;;;5322001;26;20486;-71
2024/04/12 03:18:51;;;;;;;2.80;2.50;;;16.40;99.90;;;;;;5323334;26;21439;-71
2024/04/12 03:21:22;;;;;;;4.00;2.90;;;16.40;99.90;;;;;;5317640;26;20882;-71
2024/04/12 03:23:49;;;;;;;3.60;3.20;;;16.40;99.90;;;;;;5302766;26;20454;-71
2024/04/12 03:26:18;;;;;;;4.80;3.20;;;16.40;99.90;;;;;;5317060;26;20650;-71
2024/04/12 03:28:46;;;;;;;3.83;3.40;;;16.40;99.90;;;;;;5313222;26;20571;-71
2024/04/12 03:31:12;;;;;;;5.10;2.67;;;16.40;99.90;;;;;;5305358;26;20552;-71
2024/04/12 03:33:42;;;;;;;5.23;3.60;;;16.40;99.90;;;;;;5317969;26;20538;-70
2024/04/12 03:36:26;;;;;;;3.47;3.17;;;16.40;99.90;;;;;;5307964;26;20478;-70
2024/04/12 03:41:46;;;;;;;3.50;3.20;;;16.40;99.90;;;;;;5285161;26;21340;-71
2024/04/12 03:44:18;;;;;;;4.33;3.60;;;16.40;99.90;;;;;;5306179;26;20502;-71
2024/04/12 03:46:49;;;;;;;4.70;3.43;;;16.40;99.90;;;;;;5288120;26;20472;-71
2024/04/12 03:49:23;;;;;;;3.73;3.40;;;16.40;99.90;;;;;;5319081;26;21230;-71
2024/04/12 03:51:54;;;;;;;3.87;3.33;;;16.40;99.90;;;;;;5312730;26;20522;-71
2024/04/12 03:54:24;;;;;;;6.60;3.43;;;16.40;99.90;;;;;;5305487;26;21311;-71
2024/04/12 03:56:56;;;;;;;3.80;3.40;;;16.40;99.90;;;;;;5298880;26;20578;-71
2024/04/12 03:59:24;;;;;;;5.87;3.37;;;16.40;99.90;;;;;;5313193;26;20542;-68
2024/04/12 04:01:54;;;;;;;5.33;3.60;;;16.40;99.90;;;;;;5305456;26;20478;-68
2024/04/12 04:04:26;;;;;;;3.47;3.03;;;16.40;99.90;;;;;;5307928;26;20479;-68
2024/04/12 04:06:56;;;;;;;4.77;4.23;;;16.40;99.90;;;;;;5261290;26;20960;-67
2024/04/12 04:09:32;;;;;;;3.60;3.30;;;16.40;99.90;;;;;;5314891;26;20473;-66
2024/04/12 04:12:02;;;;;;;4.93;3.20;;;16.40;99.90;;;;;;5309513;26;20826;-66
2024/04/12 04:14:32;;;;;;;7.50;3.40;;;16.40;99.90;;;;;;5318380;26;20922;-67
2024/04/12 04:17:03;;;;;;;4.43;3.77;;;16.40;99.90;;;;;;5315826;26;20458;-66
2024/04/12 04:19:31;;;;;;;4.07;3.67;;;16.40;99.90;;;;;;5317782;26;20466;-66
2024/04/12 04:22:01;;;;;;;4.17;3.07;;;16.40;99.90;;;;;;5313888;26;20466;-66
2024/04/12 04:24:32;;;;;;;5.97;3.10;;;16.40;99.90;;;;;;5303935;26;20459;-66
2024/04/12 04:26:59;;;;;;;5.13;3.33;;;16.40;99.90;;;;;;5284398;26;20837;-66
2024/04/12 04:29:28;;;;;;;3.70;3.40;;;16.40;99.90;;;;;;5323081;26;20510;-66
2024/04/12 04:31:56;;;;;;;3.70;3.23;;;16.40;99.90;;;;;;5305995;26;20608;-66
2024/04/12 04:34:25;;;;;;;4.27;3.03;;;16.40;99.90;;;;;;5314076;26;20824;-67
2024/04/12 04:36:57;;;;;;;4.30;2.93;;;16.40;99.90;;;;;;5297646;26;20515;-66
2024/04/12 04:39:24;;;;;;;3.17;2.87;;;16.40;99.90;;;;;;5310966;26;21178;-67
2024/04/12 04:41:51;;;;;;;3.67;3.27;;;16.40;99.90;;;;;;5310081;26;20521;-67
2024/04/12 04:44:17;;;;;;;5.60;3.77;;;16.40;99.90;;;;;;5313708;26;20519;-67
2024/04/12 04:46:49;;;;;;;3.97;3.10;;;16.30;99.90;;;;;;5308141;26;20466;-67
2024/04/12 04:49:19;;;;;;;3.33;3.03;;;16.40;99.90;;;;;;5309373;26;20467;-67
2024/04/12 04:51:48;;;;;;;5.00;3.60;;;16.40;99.90;;;;;;5312867;26;20468;-67
2024/04/12 04:54:16;;;;;;;4.20;3.50;;;16.40;99.90;;;;;;5321168;26;20626;-65
2024/04/12 04:56:44;;;;;;;3.53;2.83;;;16.30;99.90;;;;;;5321253;26;20462;-65
2024/04/12 04:59:17;;;;;;;3.67;3.37;;;16.40;99.90;;;;;;5320715;26;20467;-66
2024/04/12 05:01:48;;;;;;;6.10;3.97;;;16.40;99.90;;;;;;5318589;26;20449;-65
2024/04/12 05:04:21;;;;;;;7.43;4.50;;;16.30;99.90;;;;;;5263346;26;20592;-65
2024/04/12 05:06:52;;;;;;;6.20;3.70;;;16.30;99.90;;;;;;5320884;26;20561;-65
2024/04/12 05:09:23;;;;;;;5.17;3.50;;;16.30;99.90;;;;;;5350506;26;20504;-66
2024/04/12 05:11:52;;;;;;;5.77;3.97;;;16.30;99.90;;;;;;5351711;26;20585;-65
2024/04/12 05:17:09;;;;;;;4.43;3.50;;;16.30;99.90;;;;;;5324434;26;20481;-66
2024/04/12 05:19:40;;;;;;;4.17;3.77;;;16.30;99.90;;;;;;5296653;26;20462;-65
2024/04/12 05:22:14;;;;;;;5.70;3.80;;;16.30;99.90;;;;;;5326054;26;21521;-66
2024/04/12 05:24:44;;;;;;;4.57;3.70;;;16.30;99.90;;;;;;5326210;26;20461;-65
2024/04/12 05:27:13;;;;;;;4.80;3.90;;;16.30;99.90;;;;;;5294813;26;20490;-70
2024/04/12 05:29:41;;;;;;;3.60;3.30;;;16.30;99.90;;;;;;5323014;26;20525;-70
2024/04/12 05:32:09;;;;;;;4.83;3.73;;;16.30;99.90;;;;;;5275733;26;21104;-70
2024/04/12 05:34:36;;;;;;;4.90;3.53;;;16.30;99.90;;;;;;5321837;26;20462;-70
2024/04/12 05:37:05;;;;;;;4.30;3.90;;;16.30;99.90;;;;;;5315010;26;20583;-70
2024/04/12 05:39:35;;;;;;;4.03;3.63;;;16.30;99.90;;;;;;5302132;26;20995;-70
2024/04/12 05:42:06;;;;;;;3.80;3.33;;;16.30;99.90;;;;;;5289493;26;20583;-70
2024/04/12 05:44:39;;;;;;;4.40;3.57;;;16.30;99.90;;;;;;5315007;26;20474;-70
2024/04/12 05:47:06;;;;;;;4.30;3.63;;;16.30;99.90;;;;;;5313382;26;20486;-70
2024/04/12 05:49:36;;;;;;;4.60;3.63;;;16.30;99.90;;;;;;5265522;26;20514;-70
2024/04/12 05:52:06;;;;;;;4.07;3.50;;;16.30;99.90;;;;;;5308540;26;21123;-70
2024/04/12 05:54:44;;;;;;;4.80;3.40;;;16.30;99.90;;;;;;5324133;26;20508;-69
2024/04/12 05:57:13;;;;;;;3.90;3.07;;;16.30;99.90;;;;;;5344997;26;20931;-70
2024/04/12 05:59:42;;;;;;;4.93;3.10;;;16.30;99.90;;;;;;5287842;26;20725;-70
2024/04/12 06:02:12;;;;;;;3.93;3.30;;;16.30;99.90;;;;;;5294141;26;20450;-70
2024/04/12 06:04:38;;;;;;;5.43;3.47;;;16.30;99.90;;;;;;5306468;26;20472;-69
2024/04/12 06:07:13;;;;;;;3.70;3.13;;;16.30;99.90;;;;;;5330457;26;20459;-70
2024/04/12 06:09:40;;;;;;;5.80;3.50;;;16.30;99.90;;;;;;5325372;26;20510;-71
2024/04/12 06:12:07;;;;;;;5.27;3.00;;;16.30;99.90;;;;;;5293735;26;20989;-69
2024/04/12 06:14:38;;;;;;;3.17;2.87;;;16.30;99.90;;;;;;5324169;26;20553;-71
2024/04/12 06:17:11;;;;;;;4.40;3.13;;;16.30;99.90;;;;;;5308341;26;20479;-70
2024/04/12 06:19:38;;;;;;;4.87;3.23;;;16.30;99.90;;;;;;5287375;26;20464;-69
2024/04/12 06:22:12;;;;;;;3.60;3.00;;;16.30;99.90;;;;;;5301642;26;20485;-70
2024/04/12 06:24:43;;;;;;;3.90;2.67;;;16.30;99.90;;;;;;5323398;26;20605;-70
2024/04/12 06:27:09;;;;;;;4.60;3.00;;;16.30;99.90;;;;;;5335570;26;20497;-72
2024/04/12 06:29:35;;;;;;;2.30;2.00;;;16.30;99.90;;;;;;5308334;26;20527;-71
2024/04/12 06:32:02;;;;;;;4.43;3.17;;;16.30;99.90;;;;;;5306660;26;20478;-69
2024/04/12 06:34:37;;;;;;;3.57;2.73;;;16.30;99.90;;;;;;5350080;26;20542;-71
2024/04/12 06:37:07;;;;;;;3.20;2.90;;;16.30;99.90;;;;;;5317385;26;21543;-69
2024/04/12 06:39:34;;;;;;;6.17;2.63;;;16.30;99.90;;;;;;5286912;26;21410;-70
2024/04/12 06:42:08;;;;;;;2.93;2.60;;;16.30;99.90;;;;;;5317365;26;21012;-68
2024/04/12 06:44:36;;;;;;;3.53;2.73;;;16.30;99.90;;;;;;5302640;26;20466;-73
2024/04/12 06:47:05;;;;;;;3.13;2.60;;;16.30;99.90;;;;;;5283973;26;21550;-72
2024/04/12 06:49:44;;;;;;;3.23;2.90;;;16.30;99.90;;;;;;5334607;26;20455;-72
2024/04/12 06:52:29;;;;;;;2.50;2.30;;;16.30;99.90;;;;;;5333215;26;20538;-69
2024/04/12 06:55:01;;;;;;;2.93;2.63;;;16.30;99.90;;;;;;5318606;26;20901;-70
2024/04/12 06:57:27;;;;;;;4.67;3.10;;;16.30;99.90;;;;;;5306845;26;21425;-68
2024/04/12 06:59:58;;;;;;;6.40;2.97;;;16.30;99.90;;;;;;5306626;26;20499;-71
2024/04/12 07:02:24;;;;;;;4.17;3.10;;;16.30;99.90;;;;;;5314289;26;21234;-68
2024/04/12 07:04:55;;;;;;;4.33;2.63;;;16.30;99.90;;;;;;5315109;26;20572;-70
2024/04/12 07:07:28;;;;;;;3.63;2.77;;;16.30;99.90;;;;;;5314172;26;20467;-69
2024/04/12 07:09:58;;;;;;;4.30;2.90;;;16.30;99.90;;;;;;5282901;26;20463;-71
2024/04/12 07:12:27;;;;;;;3.07;2.77;;;16.30;99.90;;;;;;5326520;26;20473;-70
2024/04/12 07:15:00;;;;;;;3.80;3.27;;;16.30;99.90;;;;;;5311982;26;20481;-70
2024/04/12 07:17:28;;;;;;;4.27;2.70;;;16.30;99.90;;;;;;5293416;26;20486;-72
2024/04/12 07:19:59;;;;;;;4.63;3.20;;;16.30;99.90;;;;;;5287413;26;21053;-70
2024/04/12 07:22:27;;;;;;;5.50;3.60;;;16.30;99.90;;;;;;5306354;26;20603;-70
2024/04/12 07:24:55;;;;;;;4.10;3.60;;;16.30;99.90;;;;;;5310620;26;21054;-69
2024/04/12 07:27:22;;;;;;;3.73;2.93;;;16.30;99.90;;;;;;5305550;26;20541;-70
2024/04/12 07:29:52;;;;;;;3.70;2.53;;;16.30;99.90;;;;;;5313490;26;20514;-70
2024/04/12 07:32:23;;;;;;;3.30;3.00;;;16.30;99.90;;;;;;5303578;26;20514;-71
2024/04/12 07:34:52;;;;;;;3.93;2.97;;;16.30;99.90;;;;;;5254766;26;20502;-69
2024/04/12 07:37:32;;;;;;;3.97;3.40;;;16.30;99.90;;;;;;5288796;26;20469;-72
2024/04/12 07:40:19;;;;;;;4.87;3.00;;;16.30;99.90;;;;;;5310879;26;21462;-70
2024/04/12 07:42:46;;;;;;;3.53;2.93;;;16.30;99.90;;;;;;5282870;26;20556;-69
2024/04/12 07:45:25;;;;;;;5.53;3.40;;;16.30;99.90;;;;;;5310253;26;20562;-70
2024/04/12 07:47:54;;;;;;;4.67;3.50;;;16.30;99.90;;;;;;5309413;26;20475;-70
2024/04/12 07:50:31;;;;;;;3.03;2.73;;;16.30;99.90;;;;;;5313236;26;21191;-70
2024/04/12 07:53:10;;;;;;;5.90;2.93;;;16.30;99.90;;;;;;5318612;26;20596;-70
2024/04/12 07:55:39;;;;;;;3.43;2.97;;;16.30;99.90;;;;;;5279132;26;20505;-70
2024/04/12 07:58:12;;;;;;;3.70;3.40;;;16.30;99.90;;;;;;5345547;26;20486;-70
2024/04/12 08:00:46;;;;;;;4.00;3.30;;;16.30;99.90;;;;;;5329758;26;20483;-70
2024/04/12 08:03:17;;;;;;;5.27;2.63;;;16.40;99.90;;;;;;5293101;26;20969;-70
2024/04/12 08:06:02;;;;;;;3.10;2.80;;;16.40;99.90;;;;;;5289277;26;20529;-70
2024/04/12 08:08:30;;;;;;;5.90;3.07;;;16.40;99.90;;;;;;5305028;26;20519;-70
2024/04/12 08:10:57;;;;;;;5.33;3.40;;;16.40;99.90;;;;;;5289284;26;20608;-65
2024/04/12 08:13:37;;;;;;;5.87;3.00;;;16.40;99.90;;;;;;5310514;26;20541;-65
2024/04/12 08:16:09;;;;;;;6.27;3.10;;;16.40;99.90;;;;;;5250761;26;20490;-65
2024/04/12 08:18:43;;;;;;;4.03;3.30;;;16.40;99.90;;;;;;5290562;26;20498;-65
2024/04/12 08:21:12;;;;;;;5.70;2.60;;;16.40;99.90;;;;;;5328436;26;21503;-65
2024/04/12 08:23:44;;;;;;;4.13;3.00;;;16.40;99.90;;;;;;5315224;26;20520;-66
2024/04/12 08:26:12;;;;;;;3.20;2.60;;;16.40;99.90;;;;;;5289639;26;20475;-65
2024/04/12 08:28:43;;;;;;;2.80;2.60;;;16.40;99.90;;;;;;5303519;26;20471;-65
2024/04/12 08:31:18;;;;;;;3.13;2.83;;;16.40;99.90;;;;;;5292497;26;20513;-65
2024/04/12 08:33:46;;;;;;;3.43;3.13;;;16.40;99.90;;;;;;5321252;26;20980;-66
2024/04/12 08:36:16;;;;;;;4.37;2.67;;;16.40;99.90;;;;;;5308902;26;20994;-65
2024/04/12 08:38:57;;;;;;;4.53;3.43;;;16.50;99.90;;;;;;5338026;26;20585;-65
2024/04/12 08:41:31;;;;;;;6.90;3.17;;;16.50;99.90;;;;;;5299396;26;20523;-66
2024/04/12 08:43:58;;;;;;;4.30;2.73;;;16.50;99.90;;;;;;5318911;26;21078;-65
2024/04/12 08:46:33;;;;;;;4.17;2.77;;;16.50;99.90;;;;;;5328127;26;20466;-65
2024/04/12 08:49:03;;;;;;;5.10;2.77;;;16.50;99.90;;;;;;5325857;26;20465;-66
2024/04/12 08:51:34;;;;;;;7.13;2.73;;;16.50;99.90;;;;;;5314012;26;20549;-66
2024/04/12 08:54:05;;;;;;;2.80;2.40;;;16.50;99.90;;;;;;5321217;26;20541;-66
2024/04/12 08:56:34;;;;;;;2.63;2.40;;;16.50;99.90;;;;;;5318502;26;20585;-65
2024/04/12 08:59:07;;;;;;;6.50;2.90;;;16.50;99.90;;;;;;5325485;26;21391;-66
2024/04/12 09:01:40;;;;;;;5.10;3.00;;;16.50;99.90;;;;;;5290771;27;20463;-65
2024/04/12 09:04:16;;;;;;;3.60;2.93;;;16.50;99.90;;;;;;5301263;26;20557;-65
2024/04/12 09:06:48;;;;;;;4.23;2.83;;;16.50;99.90;;;;;;5295760;26;20585;-66
2024/04/12 09:09:22;;;;;;;4.83;2.93;;;16.60;99.90;;;;;;5324219;26;20827;-65
2024/04/12 09:11:54;;;;;;;3.93;3.00;;;16.60;99.90;;;;;;5288727;26;21424;-65
2024/04/12 09:14:23;;;;;;;6.00;3.07;;;16.60;99.90;;;;;;5325752;26;20962;-66
2024/04/12 09:17:00;;;;;;;3.50;3.10;;;16.60;99.90;;;;;;5296197;26;20485;-67
2024/04/12 09:19:31;;;;;;;4.03;2.80;;;16.60;99.90;;;;;;5305127;26;21150;-67
2024/04/12 09:22:02;;;;;;;6.00;2.77;;;16.70;99.90;;;;;;5310514;26;21101;-67
2024/04/12 09:24:31;;;;;;;5.87;3.70;;;16.60;99.90;;;;;;5311119;26;20507;-68
2024/04/12 09:27:09;;;;;;;6.00;2.33;;;16.70;99.90;;;;;;5310704;26;20606;-69
2024/04/12 09:32:50;;;;;;;5.40;3.83;;;16.60;99.90;;;;;;5306380;26;20477;-70
2024/04/12 09:35:13;;;;;;;4.50;2.60;;;16.70;99.90;;;;;;5311521;26;20531;-69
2024/04/12 09:37:42;;;;;;;4.87;3.40;;;16.70;99.90;;;;;;5314553;26;20539;-70
2024/04/12 09:45:27;;;;;;;5.57;3.50;;;16.70;99.90;;;;;;5315935;26;20514;-70
2024/04/12 10:39:44;;;;;;;4.73;3.30;;;17.00;99.90;;;;;;5321558;26;20466;-69
2024/04/12 10:42:13;;;;;;;3.97;3.00;;;17.00;99.90;;;;;;5308391;26;20474;-73
2024/04/12 10:44:46;;;;;;;4.07;3.07;;;17.00;99.90;;;;;;5305075;26;20539;-72
2024/04/12 10:47:20;;;;;;;5.23;3.47;;;17.00;99.90;;;;;;5324554;26;20482;-74
2024/04/12 10:49:56;;;;;;;4.10;2.90;;;17.10;99.90;;;;;;5293932;26;20458;-73
2024/04/12 10:52:31;;;;;;;3.63;2.90;;;17.10;99.90;;;;;;5318454;26;20482;-73
2024/04/12 10:55:00;;;;;;;5.03;3.13;;;17.10;99.90;;;;;;5322404;26;20530;-73
2024/04/12 10:57:29;;;;;;;4.70;2.60;;;17.10;99.90;;;;;;5313174;26;21136;-73
2024/04/12 11:00:00;;;;;;;4.00;3.20;;;17.10;99.90;;;;;;5314228;26;20533;-73
2024/04/12 11:02:31;;;;;;;4.07;3.07;;;17.20;99.90;;;;;;5320110;26;20528;-73
2024/04/12 11:07:47;;;;;;;4.93;3.40;;;17.20;99.90;;;;;;5283124;26;20530;-69
2024/04/12 11:10:24;;;;;;;3.13;2.50;;;17.20;99.90;;;;;;5301715;26;20474;-67
2024/04/12 11:12:59;;;;;;;3.27;2.80;;;17.20;99.90;;;;;;5298260;26;21477;-67
2024/04/12 11:32:12;;;;;;;5.73;3.37;;;17.30;99.90;;;;;;5281402;26;20848;-68
2024/04/12 11:34:44;;;;;;;4.87;2.80;;;17.30;99.90;;;;;;5317208;26;20860;-67
2024/04/12 11:37:13;;;;;;;4.50;3.20;;;17.40;99.90;;;;;;5301105;26;20483;-68
2024/04/12 11:39:41;;;;;;;3.60;2.93;;;17.40;99.90;;;;;;5310887;26;20549;-67
2024/04/12 11:42:15;;;;;;;3.00;2.43;;;17.40;99.90;;;;;;5240976;26;21293;-67
2024/04/12 11:44:47;;;;;;;5.03;2.90;;;17.40;99.90;;;;;;5257967;26;20566;-67
2024/04/12 11:47:16;;;;;;;4.20;2.83;;;17.40;99.90;;;;;;5289905;26;20475;-67
2024/04/12 11:49:45;;;;;;;3.07;2.77;;;17.40;99.90;;;;;;5311984;26;21244;-68
2024/04/12 11:52:17;;;;;;;3.33;2.60;;;17.50;99.90;;;;;;5297014;26;20459;-67
2024/04/12 11:54:56;;;;;;;4.37;2.60;;;17.50;99.90;;;;;;5280816;26;21064;-67
2024/04/12 11:57:27;;;;;;;4.40;3.57;;;17.50;99.90;;;;;;5286349;26;20638;-69
2024/04/12 11:59:59;;;;;;;4.00;2.30;;;17.50;99.90;;;;;;5336485;26;20474;-67
2024/04/12 12:02:27;;;;;;;2.70;2.20;;;17.50;99.90;;;;;;5333244;26;20759;-67
2024/04/12 12:04:57;;;;;;;3.93;2.53;;;17.60;99.90;;;;;;5318787;26;20530;-67
2024/04/12 12:07:23;;;;;;;4.10;2.77;;;17.60;99.90;;;;;;5266588;26;20490;-67
2024/04/12 12:09:49;;;;;;;4.20;2.80;;;17.60;99.90;;;;;;5292613;26;20606;-69
2024/04/12 12:12:21;;;;;;;3.67;2.90;;;17.70;99.90;;;;;;5308825;26;20474;-68
2024/04/12 12:14:51;;;;;;;5.47;2.80;;;17.70;99.90;;;;;;5311909;26;20497;-69
2024/04/12 12:17:19;;;;;;;3.87;2.00;;;17.70;99.90;;;;;;5288375;26;20588;-69
2024/04/12 12:19:47;;;;;;;4.67;2.90;;;17.70;99.90;;;;;;5315399;26;20482;-68
2024/04/12 12:22:13;;;;;;;3.90;2.97;;;17.80;99.90;;;;;;5319087;26;20569;-68
2024/04/12 12:24:42;;;;;;;3.03;2.47;;;17.80;99.90;;;;;;5316740;26;20938;-68
2024/04/12 12:27:11;;;;;;;4.23;2.20;;;17.80;99.90;;;;;;5320825;26;20565;-69
2024/04/12 12:29:42;;;;;;;5.17;2.67;;;17.80;99.90;;;;;;5322010;26;20517;-69
2024/04/12 12:32:09;;;;;;;3.73;2.50;;;17.90;99.90;;;;;;5344690;26;20463;-68
2024/04/12 12:34:38;;;;;;;5.20;2.50;;;17.90;99.90;;;;;;5311184;26;21108;-69
2024/04/12 12:37:04;;;;;;;3.50;2.60;;;17.90;99.90;;;;;;5315481;26;20529;-69
2024/04/12 12:39:35;;;;;;;5.53;2.40;;;18.00;99.90;;;;;;5320412;26;20554;-68
2024/04/12 12:42:13;;;;;;;3.20;2.10;;;18.00;99.90;;;;;;5309675;26;20728;-68
2024/04/12 12:44:39;;;;;;;3.67;2.07;;;18.00;99.90;;;;;;5310458;26;20532;-67
2024/04/12 12:47:05;;;;;;;5.33;2.20;;;18.00;99.90;;;;;;5258902;26;20565;-68
2024/04/12 12:49:40;;;;;;;4.10;2.10;;;18.00;99.90;;;;;;5292880;26;20883;-67
2024/04/12 12:52:12;;;;;;;3.20;2.13;;;18.00;99.90;;;;;;5315147;26;20489;-67
2024/04/12 12:54:43;;;;;;;3.27;2.00;;;18.10;99.90;;;;;;5288724;26;20473;-68
2024/04/12 12:57:15;;;;;;;4.73;2.40;;;18.10;99.90;;;;;;5294828;26;21020;-69
2024/04/12 12:59:46;;;;;;;2.93;2.47;;;18.10;99.90;;;;;;5290776;26;20997;-68
2024/04/12 13:02:16;;;;;;;3.83;2.33;;;18.10;99.90;;;;;;5279357;26;20474;-67
2024/04/12 13:04:43;;;;;;;4.20;2.47;;;18.10;99.90;;;;;;5305547;26;20466;-67
2024/04/12 13:07:11;;;;;;;2.90;1.90;;;18.20;99.90;;;;;;5326727;26;20477;-68
2024/04/12 13:09:37;;;;;;;6.17;2.70;;;18.20;99.90;;;;;;5323058;26;21104;-68
2024/04/12 13:12:09;;;;;;;2.50;1.83;;;18.20;99.90;;;;;;5299247;26;20868;-67
2024/04/12 13:14:40;;;;;;;3.00;2.20;;;18.30;99.90;;;;;;5317768;26;20477;-68
2024/04/12 13:17:13;;;;;;;5.30;2.27;;;18.30;99.90;;;;;;5320248;26;20607;-67
2024/04/12 13:19:41;;;;;;;3.70;2.33;;;18.30;99.90;;;;;;5304810;26;20954;-68
2024/04/12 13:22:11;;;;;;;2.27;2.07;;;18.30;99.90;;;;;;5263280;27;20497;-68
2024/04/12 13:24:43;;;;;;;5.10;2.20;;;18.30;99.90;;;;;;5330982;26;20925;-69
2024/04/12 13:27:14;;;;;;;3.20;2.47;;;18.30;99.90;;;;;;5321302;26;20522;-70
2024/04/12 13:29:41;;;;;;;4.43;2.13;;;18.30;99.90;;;;;;5264692;26;20808;-67
2024/04/12 13:32:10;;;;;;;5.20;2.20;;;18.40;99.90;;;;;;5320943;26;20510;-77
2024/04/12 13:34:39;;;;;;;3.77;2.47;;;18.30;99.90;;;;;;5367713;21;20493;-31
2024/04/12 13:37:10;;;;;;;3.20;2.30;;;18.40;99.90;;;;;;5438491;26;20450;-30
2024/04/12 13:39:39;;;;;;;4.70;2.87;;;18.40;99.90;;;;;;5413425;26;20513;-30
2024/04/12 13:42:10;;;;;;;3.23;2.60;;;18.40;99.90;;;;;;5397444;26;20475;-41
2024/04/12 13:52:56;;;;;;;2.57;2.30;;;18.40;99.90;;;;;;5396589;26;20606;-38
2024/04/12 13:55:23;;;;;;;3.47;2.20;;;18.50;99.90;;;;;;5365973;26;20475;-40
2024/04/12 13:57:52;;;;;;;4.07;2.53;;;18.50;99.90;;;;;;5396027;26;20520;-41
2024/04/12 14:00:29;;;;;;;2.77;2.27;;;18.40;99.90;;;;;;5396690;26;20460;-40
2024/04/12 14:02:58;;;;;;;2.10;1.90;;;18.50;99.90;;;;;;5365183;26;20486;-41
2024/04/12 14:05:34;;;;;;;2.60;2.40;;;18.50;99.90;;;;;;5397435;26;20487;-41
2024/04/12 14:08:07;;;;;;;2.60;2.10;;;18.50;99.90;;;;;;5332371;26;20547;-39
2024/04/12 14:10:36;;;;;;;3.57;2.20;;;18.50;99.90;;;;;;5391533;26;20545;-41
2024/04/12 14:13:05;;;;;;;3.60;2.30;;;18.50;99.90;;;;;;5367708;26;20550;-41
2024/04/12 14:15:34;;;;;;;4.30;2.37;;;18.50;99.90;;;;;;5360813;26;20560;-39
2024/04/12 14:18:00;;;;;;;6.23;2.37;;;18.50;99.90;;;;;;5396318;26;20523;-42
2024/04/12 14:20:26;;;;;;;2.37;2.07;;;18.60;99.90;;;;;;5398383;26;20554;-39
2024/04/12 14:22:54;;;;;;;3.10;2.57;;;18.60;99.90;;;;;;5367051;26;20480;-41
2024/04/12 14:25:21;;;;;;;5.93;2.33;;;18.60;99.90;;;;;;5396964;26;20574;-40
2024/04/12 14:27:47;;;;;;;4.57;2.50;;;18.60;99.90;;;;;;5364712;26;20521;-41
2024/04/12 14:30:15;;;;;;;2.43;2.23;;;18.60;99.90;;;;;;5396939;26;21468;-41
2024/04/12 14:32:50;;;;;;;4.27;2.50;;;18.70;99.90;;;;;;5365716;26;20844;-37
2024/04/12 14:35:21;;;;;;;6.77;2.17;;;18.70;99.90;;;;;;5338414;26;20599;-41
2024/04/12 14:37:50;;;;;;;4.63;2.97;;;18.70;99.90;;;;;;5336498;26;20468;-38
2024/04/12 14:40:21;;;;;;;2.67;2.30;;;18.70;99.90;;;;;;5364586;26;20501;-40